CYBC

Baie Comeau Airport

Baie-Comeau, Quebec, Canada
METAR CYBC 250600Z AUTO 06006KT 9SM BKN100 10/09 A2993 RMK SLP136
Observed Flight Rules
Jun-25 @ 06:00 UTC (22 minutes ago) Visual Flight Rules
Wind Visibility Clouds
60° at 6 knots 9 miles
  • Broken at 10,000' AGL
Temperatures Readings
Current 10°C / 50°F
Dewpoint 9°C / 48°F
Humidity 94%
Altimeter 29.93" Hg
Pressure 1013.6 hPa
Elevation 22
METAR CYBC 250600Z AUTO 06006KT 9SM BKN100 10/09 A2993 RMK SLP136
Observed Flight Rules
Jun-25 @ 06:00 UTC
(22 minutes ago)
VFR
Wind Visibility
60° at 6 knots 9 miles
Clouds
  • Broken at 10,000' AGL
Temperature Dewpoint
10°C / 50°F 9°C / 48°F
Humidity Altimeter Pressure
94% 29.93" Hg 1013.6 hPa